Time;durP1;ratioP1;P1;durP2;ratioP2;P2;SDS_P1;SDS_P2;PMS_P1;PMS_P2;Temp;Humidity;BMP_temperature;BMP_pressure;BME280_temperature;BME280_humidity;BME280_pressure;Samples;Min_cycle;Max_cycle;Signal;HPM_P1;HPM_P2
2022/08/26 00:04:33;;;;;;;6.80;5.10;;;;;;;20.42;48.54;99630.97;10342758;28;20054;-58
2022/08/26 00:09:36;;;;;;;8.57;5.63;;;;;;;20.35;48.48;99633.44;10342059;28;20370;-58
2022/08/26 00:14:40;;;;;;;8.45;5.47;;;;;;;20.31;48.82;99637.41;10343410;28;20490;-59
2022/08/26 00:19:42;;;;;;;9.52;5.78;;;;;;;20.26;48.67;99629.91;10340430;28;20231;-59
2022/08/26 00:24:44;;;;;;;8.85;5.15;;;;;;;20.18;49.19;99637.00;10342791;28;20100;-58
2022/08/26 00:29:51;;;;;;;8.27;5.40;;;;;;;20.16;49.11;99629.22;10342857;28;20140;-59
2022/08/26 00:34:53;;;;;;;7.60;5.32;;;;;;;20.10;49.09;99631.66;10341629;28;20100;-59
2022/08/26 00:39:55;;;;;;;7.10;5.65;;;;;;;20.01;49.46;99632.63;10342570;28;20373;-59
2022/08/26 00:45:01;;;;;;;8.25;5.90;;;;;;;20.00;49.55;99638.91;10343724;28;20125;-59
2022/08/26 00:50:14;;;;;;;7.78;5.40;;;;;;;19.99;49.16;99637.28;10341705;28;20054;-59
2022/08/26 00:55:32;;;;;;;10.82;5.80;;;;;;;19.94;49.78;99650.16;10342007;28;20057;-59
2022/08/26 01:00:38;;;;;;;7.28;5.60;;;;;;;19.89;49.73;99636.53;10341029;28;20533;-59
2022/08/26 01:05:41;;;;;;;8.40;5.93;;;;;;;19.83;49.72;99638.00;10344244;28;20133;-59
2022/08/26 01:10:44;;;;;;;8.05;5.43;;;;;;;19.77;49.92;99637.75;10341077;28;20057;-59
2022/08/26 01:15:52;;;;;;;9.55;6.10;;;;;;;19.74;50.15;99633.63;10341422;28;20050;-59
2022/08/26 01:21:32;;;;;;;10.07;6.38;;;;;;;19.55;50.74;99632.97;10338700;28;20054;-59
2022/08/26 01:26:41;;;;;;;10.57;6.47;;;;;;;19.27;51.07;99630.47;10342149;28;20049;-59
2022/08/26 01:31:51;;;;;;;8.90;5.97;;;;;;;18.99;52.09;99636.81;10340026;28;20409;-59
2022/08/26 01:37:05;;;;;;;10.05;6.32;;;;;;;19.14;51.85;99634.47;10341919;28;20054;-58
2022/08/26 01:42:13;;;;;;;6.82;5.65;;;;;;;19.16;51.58;99638.66;10340649;28;20476;-59
2022/08/26 01:47:16;;;;;;;9.75;6.35;;;;;;;19.18;51.81;99642.00;10347581;28;20053;-59
2022/08/26 01:52:23;;;;;;;7.05;5.75;;;;;;;19.09;51.80;99647.38;10349510;28;20422;-59
2022/08/26 01:57:29;;;;;;;7.78;6.13;;;;;;;19.02;52.18;99641.00;10346414;28;20144;-59
2022/08/26 02:02:31;;;;;;;8.63;5.78;;;;;;;18.97;52.00;99648.56;10350439;28;20054;-59
2022/08/26 02:07:33;;;;;;;10.95;6.03;;;;;;;19.02;51.99;99649.81;10355576;28;20436;-59
2022/08/26 02:12:35;;;;;;;8.75;5.85;;;;;;;18.95;52.12;99646.03;10353784;28;20053;-59
2022/08/26 02:17:43;;;;;;;9.77;6.40;;;;;;;18.90;52.76;99658.09;10356692;28;20060;-59
2022/08/26 02:22:46;;;;;;;8.27;6.13;;;;;;;18.86;52.60;99668.16;10355036;28;20060;-59
2022/08/26 02:27:48;;;;;;;8.73;6.13;;;;;;;18.82;52.70;99666.81;10354904;28;20050;-59
2022/08/26 02:32:50;;;;;;;7.22;6.07;;;;;;;18.78;52.19;99667.25;10354027;28;20041;-58
2022/08/26 02:37:52;;;;;;;9.65;6.00;;;;;;;18.70;52.33;99668.00;10352855;28;20739;-59
2022/08/26 02:42:54;;;;;;;8.25;5.85;;;;;;;18.71;52.51;99669.66;10352530;28;20056;-58
2022/08/26 02:47:57;;;;;;;10.57;6.35;;;;;;;18.64;52.37;99668.59;10355436;28;20410;-59
2022/08/26 02:53:00;;;;;;;9.73;5.90;;;;;;;18.56;52.83;99665.88;10353598;28;20041;-59
2022/08/26 02:58:03;;;;;;;8.15;6.50;;;;;;;18.56;52.87;99663.22;10351408;28;20359;-59
2022/08/26 03:03:05;;;;;;;10.05;6.40;;;;;;;18.45;52.84;99666.91;10350053;28;20050;-59
2022/08/26 03:08:10;;;;;;;9.13;6.63;;;;;;;18.32;53.55;99652.34;10345398;28;20509;-59
2022/08/26 03:13:12;;;;;;;12.15;6.80;;;;;;;18.31;53.60;99646.22;10330181;28;20308;-58
2022/08/26 03:18:14;;;;;;;10.93;6.63;;;;;;;18.26;53.89;99647.66;10343911;28;20528;-58
2022/08/26 03:23:16;;;;;;;8.45;5.70;;;;;;;18.30;53.53;99649.81;10342776;28;20058;-58
2022/08/26 03:28:19;;;;;;;11.05;6.40;;;;;;;18.38;53.54;99659.69;10340121;28;20487;-59
2022/08/26 03:33:21;;;;;;;10.10;6.43;;;;;;;18.43;53.45;99658.28;10342200;28;20046;-59
2022/08/26 03:38:25;;;;;;;8.82;6.45;;;;;;;18.46;53.27;99665.91;10342497;28;20076;-59
2022/08/26 03:43:27;;;;;;;9.52;6.45;;;;;;;18.48;53.44;99658.63;10339858;28;20328;-59
2022/08/26 03:48:29;;;;;;;10.30;6.88;;;;;;;18.29;53.65;99660.56;10341484;28;20136;-59
2022/08/26 03:53:30;;;;;;;10.52;6.10;;;;;;;18.33;53.66;99657.50;10343401;28;20182;-59
2022/08/26 03:58:36;;;;;;;9.30;7.18;;;;;;;18.47;53.30;99664.09;10343431;28;20510;-59
2022/08/26 04:09:05;;;;;;;14.15;7.18;;;;;;;18.25;54.28;99657.38;10341546;28;20056;-59
2022/08/26 04:14:12;;;;;;;10.68;7.20;;;;;;;18.29;54.28;99655.28;10341122;28;20341;-59
2022/08/26 04:19:15;;;;;;;12.93;7.47;;;;;;;18.27;54.41;99662.53;10342737;28;20061;-59
2022/08/26 04:24:19;;;;;;;10.15;8.13;;;;;;;18.13;54.82;99652.41;10341756;28;20053;-59
2022/08/26 04:29:24;;;;;;;10.98;9.50;;;;;;;18.12;55.52;99651.56;10341459;28;20075;-59
2022/08/26 04:34:27;;;;;;;18.20;9.55;;;;;;;18.23;55.15;99656.69;10342483;28;20309;-59
2022/08/26 04:39:29;;;;;;;16.20;10.23;;;;;;;18.22;55.65;99657.66;10337585;28;20518;-59
2022/08/26 04:44:34;;;;;;;17.10;13.48;;;;;;;18.29;56.13;99657.91;10338645;28;20058;-58
2022/08/26 04:49:37;;;;;;;15.30;10.18;;;;;;;18.54;55.57;99657.25;10341956;28;20046;-59
2022/08/26 04:54:38;;;;;;;12.32;8.45;;;;;;;18.47;55.07;99664.09;10341630;28;20469;-59
2022/08/26 04:59:42;;;;;;;12.13;9.25;;;;;;;18.51;55.12;99665.47;10341252;28;20445;-59
2022/08/26 05:04:44;;;;;;;18.98;12.82;;;;;;;18.54;55.67;99678.41;10342065;28;20058;-59
2022/08/26 05:09:45;;;;;;;20.75;16.02;;;;;;;18.75;55.91;99680.81;10342328;28;20050;-59
2022/08/26 05:14:47;;;;;;;19.25;15.35;;;;;;;18.98;56.05;99682.88;10342040;28;20057;-59
2022/08/26 05:19:49;;;;;;;17.75;14.45;;;;;;;19.08;55.83;99685.47;10346412;28;20502;-59
2022/08/26 05:24:51;;;;;;;22.30;15.38;;;;;;;19.27;55.35;99690.63;10349871;28;20054;-59
2022/08/26 05:29:56;;;;;;;18.15;13.10;;;;;;;19.53;55.05;99688.84;10349797;28;20132;-59
2022/08/26 05:34:58;;;;;;;22.15;15.77;;;;;;;19.80;54.45;99687.88;10347502;28;20064;-59
2022/08/26 05:40:03;;;;;;;26.55;17.30;;;;;;;20.04;53.92;99698.66;10349930;28;20053;-59
2022/08/26 05:45:06;;;;;;;17.27;13.38;;;;;;;20.10;53.76;99695.38;10349339;28;20050;-59
2022/08/26 05:50:08;;;;;;;39.42;29.10;;;;;;;20.29;54.09;99701.28;10349033;28;20493;-59
2022/08/26 05:55:09;;;;;;;62.22;48.53;;;;;;;20.54;55.54;99704.06;10350239;28;20050;-59
2022/08/26 06:00:14;;;;;;;66.05;49.00;;;;;;;20.77;55.72;99700.69;10349010;28;20050;-58
2022/08/26 06:05:16;;;;;;;74.82;53.33;;;;;;;20.90;55.70;99703.72;10349289;28;20050;-59
2022/08/26 06:10:18;;;;;;;71.97;53.10;;;;;;;21.21;55.30;99706.59;10349048;28;20081;-59
2022/08/26 06:15:34;;;;;;;57.53;41.72;;;;;;;21.54;54.02;99707.44;10345987;28;20517;-59
2022/08/26 06:20:36;;;;;;;63.65;46.97;;;;;;;21.71;53.95;99701.97;10344625;28;20052;-59
2022/08/26 06:25:38;;;;;;;59.10;45.38;;;;;;;22.19;52.83;99700.25;10348800;28;20046;-59
2022/08/26 06:30:40;;;;;;;78.40;56.78;;;;;;;22.59;52.59;99706.25;10343524;28;20041;-59
2022/08/26 06:35:42;;;;;;;73.80;55.30;;;;;;;22.93;51.95;99708.59;10348757;28;20557;-58
2022/08/26 06:40:49;;;;;;;71.43;54.17;;;;;;;23.28;51.42;99710.69;10346669;28;20046;-59
2022/08/26 06:46:00;;;;;;;77.65;56.50;;;;;;;23.31;51.13;99709.47;10345978;28;20056;-59
2022/08/26 06:51:11;;;;;;;69.35;52.50;;;;;;;23.36;50.92;99715.97;10344764;28;20188;-59
2022/08/26 06:56:16;;;;;;;73.72;55.17;;;;;;;23.55;50.83;99708.50;10346768;28;20068;-59
2022/08/26 07:01:23;;;;;;;65.13;52.92;;;;;;;23.70;50.41;99710.19;10343560;28;20872;-59
2022/08/26 07:06:27;;;;;;;57.58;44.72;;;;;;;23.85;49.29;99711.06;10346435;28;20050;-59
2022/08/26 07:11:29;;;;;;;63.78;49.17;;;;;;;23.79;49.48;99708.28;10346239;28;20194;-59
2022/08/26 07:16:32;;;;;;;60.38;49.15;;;;;;;23.77;49.50;99712.97;10345721;28;20053;-59
2022/08/26 07:21:33;;;;;;;61.08;47.83;;;;;;;24.07;49.13;99707.53;10344622;28;20516;-60
2022/08/26 07:26:35;;;;;;;58.22;48.78;;;;;;;24.26;49.09;99715.00;10344776;28;20052;-59
2022/08/26 07:31:40;;;;;;;60.65;50.50;;;;;;;24.82;47.89;99708.13;10333311;28;20046;-59
2022/08/26 07:36:43;;;;;;;55.55;45.72;;;;;;;25.12;47.16;99698.19;10334648;28;20128;-59
2022/08/26 07:41:46;;;;;;;55.80;47.40;;;;;;;25.68;45.92;99708.00;10339838;28;20049;-59
2022/08/26 07:46:49;;;;;;;52.88;44.47;;;;;;;26.40;44.29;99703.16;10340692;28;20532;-59
2022/08/26 07:51:54;;;;;;;46.65;38.95;;;;;;;26.74;43.08;99702.28;10340504;28;20559;-59
2022/08/26 07:56:58;;;;;;;52.17;40.72;;;;;;;27.25;42.34;99698.13;10330499;28;20069;-59
2022/08/26 08:02:00;;;;;;;45.50;38.88;;;;;;;27.74;40.99;99696.94;10335736;28;20052;-59
2022/08/26 08:07:02;;;;;;;46.25;39.13;;;;;;;28.16;40.07;99697.28;10343297;28;20057;-59
2022/08/26 08:12:08;;;;;;;45.80;37.42;;;;;;;28.46;39.54;99692.25;10342998;28;20128;-59
2022/08/26 08:17:15;;;;;;;52.40;39.72;;;;;;;28.33;39.85;99680.72;10342954;28;20053;-59
2022/08/26 08:22:17;;;;;;;46.38;38.80;;;;;;;28.11;40.22;99688.22;10341060;28;20057;-59
2022/08/26 08:27:20;;;;;;;45.63;38.30;;;;;;;28.60;39.07;99690.34;10342890;28;20072;-59
2022/08/26 08:32:24;;;;;;;43.47;35.97;;;;;;;28.79;38.87;99698.31;10342127;28;20077;-59
2022/08/26 08:37:26;;;;;;;46.15;38.90;;;;;;;29.02;38.32;99690.59;10342791;28;20156;-59
2022/08/26 08:42:31;;;;;;;48.65;38.53;;;;;;;29.12;38.22;99698.19;10340535;28;20058;-59
2022/08/26 08:47:41;;;;;;;46.60;40.28;;;;;;;29.40;37.01;99687.84;10338410;28;20497;-59
2022/08/26 08:52:49;;;;;;;40.67;35.65;;;;;;;29.99;36.26;99671.19;10342747;28;20205;-59
2022/08/26 08:58:15;;;;;;;44.63;36.93;;;;;;;29.94;35.91;99672.91;10347780;28;20073;-59
2022/08/26 09:03:29;;;;;;;44.53;38.17;;;;;;;29.92;35.93;99670.41;10343080;28;20386;-59
2022/08/26 09:08:35;;;;;;;40.88;34.25;;;;;;;29.74;36.31;99671.19;10346800;28;20049;-59
2022/08/26 09:13:38;;;;;;;45.65;36.72;;;;;;;29.86;36.16;99680.22;10344757;28;20055;-59
2022/08/26 09:18:42;;;;;;;50.70;39.47;;;;;;;29.49;36.90;99683.84;10348843;28;20081;-59
2022/08/26 09:23:46;;;;;;;42.60;35.95;;;;;;;29.27;37.19;99676.31;10345690;28;20493;-59
2022/08/26 09:28:59;;;;;;;48.30;38.42;;;;;;;29.23;37.31;99669.72;10338144;28;20061;-59
2022/08/26 09:34:21;;;;;;;48.50;37.05;;;;;;;29.42;36.65;99661.53;10347781;28;20085;-59
2022/08/26 09:39:26;;;;;;;45.17;33.63;;;;;;;29.63;36.26;99666.53;10349877;28;20057;-59
2022/08/26 09:44:28;;;;;;;38.75;32.40;;;;;;;29.77;36.06;99657.28;10350690;28;20057;-59
2022/08/26 09:49:37;;;;;;;41.40;32.60;;;;;;;29.91;35.29;99654.47;10348156;28;20068;-59
2022/08/26 09:54:43;;;;;;;38.58;31.25;;;;;;;29.99;34.83;99651.50;10347312;28;20234;-59
2022/08/26 09:59:48;;;;;;;42.67;32.55;;;;;;;29.60;35.97;99641.91;10343435;28;20513;-59
2022/08/26 10:04:55;;;;;;;39.47;31.98;;;;;;;29.76;35.92;99638.63;10348907;28;20718;-59
2022/08/26 10:09:57;;;;;;;44.85;33.38;;;;;;;29.55;36.07;99636.34;10346864;28;20042;-59
2022/08/26 10:15:07;;;;;;;41.88;30.83;;;;;;;29.68;35.77;99631.63;10346872;28;20449;-59
2022/08/26 10:20:27;;;;;;;38.80;31.17;;;;;;;29.52;35.85;99626.81;10348399;28;20140;-59
2022/08/26 10:25:42;;;;;;;38.00;28.98;;;;;;;29.44;36.19;99615.50;10347352;28;20053;-59
2022/08/26 10:30:49;;;;;;;37.33;27.25;;;;;;;29.57;35.96;99607.28;10344899;28;20048;-59
2022/08/26 10:35:58;;;;;;;31.90;24.58;;;;;;;29.82;36.23;99594.59;10345757;28;20136;-59
2022/08/26 10:41:09;;;;;;;32.00;24.40;;;;;;;29.87;35.71;99600.97;10347500;28;20502;-59
2022/08/26 10:46:18;;;;;;;30.13;22.25;;;;;;;29.72;36.17;99589.72;10343178;28;20061;-60
2022/08/26 10:51:28;;;;;;;28.17;20.52;;;;;;;29.80;36.13;99588.63;10347274;28;20505;-59
2022/08/26 10:57:02;;;;;;;26.17;21.08;;;;;;;29.19;36.19;99585.03;10347237;28;20083;-59
2022/08/26 11:02:14;;;;;;;27.05;18.90;;;;;;;29.20;36.44;99579.41;10344329;28;20320;-59
2022/08/26 11:07:36;;;;;;;25.23;18.35;;;;;;;29.05;36.39;99582.41;10357533;28;20449;-59
2022/08/26 11:12:38;;;;;;;25.45;18.45;;;;;;;29.03;36.68;99576.44;10344062;28;20056;-59
2022/08/26 11:17:43;;;;;;;19.85;17.17;;;;;;;29.07;36.40;99574.94;10346265;28;20473;-59
2022/08/26 11:22:45;;;;;;;22.27;17.13;;;;;;;28.97;36.49;99580.00;10345995;28;20118;-59
2022/08/26 11:27:51;;;;;;;20.58;15.88;;;;;;;28.90;36.59;99576.53;10345088;28;20240;-59
2022/08/26 11:32:56;;;;;;;18.80;14.82;;;;;;;28.92;36.31;99579.84;10345093;28;20133;-59
2022/08/26 11:38:20;;;;;;;20.30;14.10;;;;;;;29.20;35.87;99573.19;10344765;28;20062;-60
2022/08/26 11:43:26;;;;;;;26.27;15.23;;;;;;;29.05;36.30;99568.97;10344759;28;20203;-60
2022/08/26 11:48:33;;;;;;;18.45;14.48;;;;;;;29.12;36.43;99565.38;10343288;28;20045;-59
2022/08/26 11:53:41;;;;;;;18.60;13.52;;;;;;;29.25;35.83;99562.59;10345806;28;20489;-60
2022/08/26 11:58:45;;;;;;;16.25;13.35;;;;;;;29.38;35.84;99552.50;10344459;28;20060;-59
2022/08/26 12:03:49;;;;;;;16.02;14.10;;;;;;;29.35;35.93;99544.06;10344799;28;20137;-59
2022/08/26 12:08:54;;;;;;;16.15;14.02;;;;;;;29.25;35.84;99543.72;10344057;28;20457;-60
2022/08/26 12:14:03;;;;;;;18.20;12.13;;;;;;;29.40;35.62;99546.94;10344610;28;20132;-60
2022/08/26 12:19:26;;;;;;;16.48;11.23;;;;;;;29.37;35.69;99533.88;10344613;28;20045;-59
2022/08/26 12:24:28;;;;;;;17.08;10.77;;;;;;;29.47;35.85;99540.44;10344609;28;20096;-59
2022/08/26 12:29:30;;;;;;;23.15;11.07;;;;;;;29.40;35.89;99536.19;10344964;28;20072;-59
2022/08/26 12:34:32;;;;;;;18.13;11.13;;;;;;;29.11;36.04;99534.97;10343552;28;20052;-59
2022/08/26 12:39:36;;;;;;;19.90;11.95;;;;;;;29.06;36.53;99541.00;10344185;28;20202;-59
2022/08/26 12:44:48;;;;;;;19.77;11.60;;;;;;;29.12;35.83;99550.06;10341472;28;20050;-60
2022/08/26 12:50:24;;;;;;;17.95;11.63;;;;;;;29.06;36.33;99551.78;10344154;28;20408;-59
2022/08/26 12:55:51;;;;;;;15.60;11.23;;;;;;;29.02;36.50;99541.66;10340210;28;20057;-59
2022/08/26 13:01:13;;;;;;;14.63;12.15;;;;;;;29.18;35.97;99546.47;10342663;28;20478;-59
2022/08/26 13:06:21;;;;;;;18.10;13.95;;;;;;;29.12;36.17;99539.28;10341826;28;20053;-59
2022/08/26 13:11:30;;;;;;;18.73;13.10;;;;;;;29.21;35.93;99527.19;10343420;28;20042;-59
2022/08/26 13:16:32;;;;;;;17.83;14.32;;;;;;;29.42;35.65;99532.19;10341567;28;20446;-60
2022/08/26 13:21:48;;;;;;;22.60;13.98;;;;;;;29.36;36.25;99537.63;10338517;28;20551;-59
2022/08/26 13:26:50;;;;;;;17.23;13.15;;;;;;;29.12;36.41;99528.50;10343660;28;20142;-59
2022/08/26 13:31:52;;;;;;;20.45;13.98;;;;;;;28.77;36.81;99533.53;10342035;28;20534;-59
2022/08/26 13:36:55;;;;;;;16.15;12.68;;;;;;;28.53;37.02;99528.94;10342210;28;20337;-59
2022/08/26 13:41:57;;;;;;;18.42;12.90;;;;;;;28.47;37.20;99523.59;10347865;28;20089;-60
2022/08/26 13:46:58;;;;;;;16.95;12.13;;;;;;;28.43;37.43;99535.81;10347639;28;20077;-60
2022/08/26 13:52:02;;;;;;;16.45;10.93;;;;;;;28.43;37.55;99530.44;10348064;28;20046;-59
2022/08/26 13:57:04;;;;;;;15.45;9.98;;;;;;;28.46;37.77;99530.84;10349958;28;20474;-59
2022/08/26 14:02:06;;;;;;;14.57;9.32;;;;;;;28.71;37.17;99530.88;10345823;28;20049;-60
2022/08/26 14:07:10;;;;;;;16.80;9.98;;;;;;;28.68;37.04;99540.22;10348759;28;20556;-60
2022/08/26 14:12:12;;;;;;;16.58;8.13;;;;;;;28.57;36.87;99538.22;10345560;28;20475;-59
2022/08/26 14:17:20;;;;;;;16.05;8.27;;;;;;;28.52;36.84;99546.13;10348523;28;20050;-59
2022/08/26 14:22:22;;;;;;;14.10;7.97;;;;;;;28.07;37.27;99541.78;10347855;28;20305;-59
2022/08/26 14:27:24;;;;;;;13.13;7.00;;;;;;;27.89;37.69;99549.72;10348744;28;20137;-59
2022/08/26 14:32:27;;;;;;;12.63;7.28;;;;;;;27.84;38.22;99554.88;10345784;28;20042;-59
2022/08/26 14:37:29;;;;;;;12.15;6.53;;;;;;;27.74;38.34;99554.50;10347143;28;20064;-59
2022/08/26 14:42:31;;;;;;;11.20;6.28;;;;;;;27.69;38.18;99565.03;10346325;28;20409;-59
2022/08/26 14:47:32;;;;;;;13.00;7.55;;;;;;;27.77;37.99;99562.97;10346819;28;20365;-59
2022/08/26 14:54:10;;;;;;;11.52;7.32;;;;;;;27.71;38.21;99561.09;10345781;28;20060;-59
2022/08/26 14:57:56;;;;;;;13.50;9.70;;;;;;;27.54;38.19;99556.38;10345744;28;20053;-59
2022/08/26 15:02:57;;;;;;;12.82;10.45;;;;;;;27.50;38.08;99551.41;10345716;28;20048;-59
2022/08/26 15:08:00;;;;;;;14.20;10.20;;;;;;;27.58;38.25;99557.63;10346366;28;20329;-59
2022/08/26 15:13:03;;;;;;;22.83;11.80;;;;;;;27.66;38.03;99550.16;10344714;28;20684;-59
2022/08/26 15:18:04;;;;;;;16.13;14.43;;;;;;;27.37;38.59;99556.00;10344097;28;20436;-59
2022/08/26 15:23:06;;;;;;;18.55;13.05;;;;;;;27.27;38.82;99567.16;10346161;28;20046;-59
2022/08/26 15:28:09;;;;;;;16.30;13.23;;;;;;;27.12;38.93;99573.72;10345640;28;20064;-59
2022/08/26 15:33:10;;;;;;;22.75;13.27;;;;;;;26.92;39.29;99570.22;10344321;28;20133;-59
2022/08/26 15:38:16;;;;;;;17.35;13.20;;;;;;;26.81;39.45;99574.34;10344720;28;20077;-59
2022/08/26 15:43:18;;;;;;;16.13;12.68;;;;;;;26.88;39.43;99571.66;10344367;28;20146;-59
2022/08/26 15:48:29;;;;;;;17.00;12.73;;;;;;;26.65;39.77;99580.91;10343324;28;20411;-59
2022/08/26 15:53:33;;;;;;;17.17;12.45;;;;;;;26.59;39.74;99583.56;10344064;28;20456;-59
2022/08/26 15:58:35;;;;;;;18.92;12.65;;;;;;;26.55;40.11;99572.44;10343046;28;20053;-59
2022/08/26 16:03:37;;;;;;;18.50;13.02;;;;;;;26.45;40.51;99571.97;10342679;28;20116;-59
2022/08/26 16:08:39;;;;;;;15.80;12.88;;;;;;;26.28;40.91;99564.50;10342263;28;20456;-59
2022/08/26 16:13:40;;;;;;;16.98;11.80;;;;;;;26.14;41.15;99562.78;10343406;28;20052;-59
2022/08/26 16:18:42;;;;;;;13.13;11.18;;;;;;;25.89;41.85;99570.47;10342063;28;20046;-59
2022/08/26 16:23:45;;;;;;;13.82;10.30;;;;;;;25.85;41.91;99572.69;10343991;28;20050;-59
2022/08/26 16:28:47;;;;;;;17.08;10.75;;;;;;;25.77;42.22;99577.41;10342515;28;20137;-59
2022/08/26 16:33:48;;;;;;;16.27;10.57;;;;;;;25.68;42.42;99582.09;10342562;28;20042;-59
2022/08/26 16:38:54;;;;;;;14.63;10.00;;;;;;;25.70;42.32;99590.78;10343470;28;20398;-59
2022/08/26 16:43:56;;;;;;;17.08;11.20;;;;;;;25.51;42.86;99587.97;10343959;28;20383;-59
2022/08/26 16:48:58;;;;;;;23.23;11.38;;;;;;;25.48;43.09;99601.75;10339988;28;20050;-59
2022/08/26 16:54:01;;;;;;;14.45;10.82;;;;;;;25.49;43.11;99619.47;10342856;28;20421;-59
2022/08/26 16:59:04;;;;;;;16.27;10.35;;;;;;;25.49;43.09;99614.91;10343217;28;20052;-59
2022/08/26 17:04:06;;;;;;;19.67;12.98;;;;;;;25.29;43.29;99619.25;10343048;28;20811;-59
2022/08/26 17:09:08;;;;;;;13.18;11.05;;;;;;;25.16;43.58;99621.00;10336695;28;20088;-59
2022/08/26 17:14:10;;;;;;;17.58;10.18;;;;;;;25.15;43.60;99628.22;10341327;28;20049;-58
2022/08/26 17:19:12;;;;;;;13.90;9.43;;;;;;;25.12;43.57;99625.94;10347270;28;20046;-59
2022/08/26 17:24:16;;;;;;;19.42;9.55;;;;;;;25.01;44.04;99634.47;10349335;28;20141;-59
2022/08/26 17:29:17;;;;;;;14.27;9.07;;;;;;;24.94;44.42;99628.19;10348414;28;20046;-59
2022/08/26 17:34:21;;;;;;;12.32;8.90;;;;;;;25.00;44.15;99627.44;10346535;28;20046;-59
2022/08/26 17:39:23;;;;;;;12.85;8.50;;;;;;;24.86;44.49;99621.13;10348807;28;20297;-59
2022/08/26 17:44:25;;;;;;;12.93;8.07;;;;;;;24.67;45.01;99618.22;10347219;28;20520;-59
2022/08/26 17:49:27;;;;;;;12.13;8.38;;;;;;;24.66;45.19;99624.59;10347455;28;20058;-59
2022/08/26 17:54:29;;;;;;;13.95;7.47;;;;;;;24.66;45.25;99628.09;10343647;28;20073;-59
2022/08/26 17:59:33;;;;;;;11.05;7.63;;;;;;;24.41;45.79;99621.41;10342538;28;20178;-59
2022/08/26 18:04:35;;;;;;;12.70;7.20;;;;;;;24.32;45.79;99621.72;10347496;28;20139;-59
2022/08/26 18:09:37;;;;;;;10.35;7.03;;;;;;;24.26;46.17;99621.47;10347884;28;20055;-59
2022/08/26 18:14:39;;;;;;;11.65;6.88;;;;;;;24.13;46.50;99633.81;10345286;28;20394;-58
2022/08/26 18:19:41;;;;;;;14.60;6.72;;;;;;;24.07;46.77;99637.22;10347543;28;20405;-59
2022/08/26 18:24:43;;;;;;;15.88;6.40;;;;;;;24.08;46.67;99646.91;10347623;28;20196;-59
2022/08/26 18:30:00;;;;;;;13.07;6.75;;;;;;;23.99;46.90;99646.13;10343902;28;20100;-59
2022/08/26 18:35:02;;;;;;;15.65;6.82;;;;;;;24.01;46.85;99645.94;10345947;28;20042;-59
2022/08/26 18:40:06;;;;;;;20.08;6.88;;;;;;;23.82;47.34;99652.66;10347964;28;20050;-60
2022/08/26 18:45:08;;;;;;;11.88;6.72;;;;;;;23.76;47.58;99660.59;10344393;28;20072;-61
2022/08/26 18:50:17;;;;;;;12.73;6.97;;;;;;;23.57;47.83;99651.25;10340482;28;20054;-61
2022/08/26 18:55:18;;;;;;;11.82;6.75;;;;;;;23.43;48.08;99668.06;10344996;28;20434;-60
2022/08/26 19:00:20;;;;;;;15.55;6.70;;;;;;;23.36;48.44;99667.09;10338307;28;20491;-61
2022/08/26 19:05:22;;;;;;;13.13;6.18;;;;;;;23.38;48.24;99667.75;10342065;28;20046;-61
2022/08/26 19:10:25;;;;;;;12.00;6.50;;;;;;;23.29;48.47;99661.63;10340144;28;20265;-61
2022/08/26 19:15:26;;;;;;;12.93;6.50;;;;;;;23.23;48.62;99670.34;10345390;28;20045;-60
2022/08/26 19:20:28;;;;;;;12.75;6.32;;;;;;;23.16;48.85;99664.09;10344246;28;20402;-60
2022/08/26 19:25:30;;;;;;;13.23;6.97;;;;;;;23.16;48.89;99672.09;10346132;28;20479;-61
2022/08/26 19:30:31;;;;;;;10.55;6.40;;;;;;;23.18;48.93;99685.25;10344395;28;20084;-61
2022/08/26 19:35:34;;;;;;;11.38;6.32;;;;;;;23.13;49.00;99682.25;10345734;28;20513;-61
2022/08/26 19:40:37;;;;;;;15.23;6.43;;;;;;;23.14;48.99;99678.59;10344770;28;20318;-60
2022/08/26 19:45:39;;;;;;;13.40;6.35;;;;;;;23.08;49.10;99677.50;10346279;28;20078;-60
2022/08/26 19:50:41;;;;;;;10.77;5.93;;;;;;;23.12;48.99;99680.63;10341719;28;20375;-61
2022/08/26 19:55:42;;;;;;;10.60;6.07;;;;;;;23.12;48.91;99694.78;10344818;28;20072;-61
2022/08/26 20:00:44;;;;;;;9.75;5.97;;;;;;;23.09;49.09;99691.63;10344870;28;20095;-61
2022/08/26 20:05:46;;;;;;;12.98;6.07;;;;;;;23.05;49.13;99695.66;10343241;28;20053;-61
2022/08/26 20:10:49;;;;;;;11.38;6.18;;;;;;;23.07;49.00;99688.31;10344152;28;20577;-61
2022/08/26 20:15:50;;;;;;;13.23;6.32;;;;;;;22.90;49.44;99686.78;10343280;28;20046;-61
2022/08/26 20:26:12;;;;;;;12.00;6.40;;;;;;;22.72;49.79;99675.53;10345727;28;20490;-61
2022/08/26 20:31:15;;;;;;;13.40;6.40;;;;;;;22.61;50.15;99677.56;10339530;28;20046;-61
2022/08/26 20:36:19;;;;;;;12.70;6.57;;;;;;;22.60;50.13;99675.91;10345094;28;20046;-60
2022/08/26 20:41:24;;;;;;;11.05;5.80;;;;;;;22.59;50.11;99682.25;10342152;28;20041;-61
2022/08/26 20:46:25;;;;;;;12.25;5.90;;;;;;;22.57;50.26;99689.59;10342896;28;20482;-61
2022/08/26 20:51:27;;;;;;;10.68;6.03;;;;;;;22.56;50.14;99693.25;10340679;28;20088;-61
2022/08/26 20:56:29;;;;;;;10.10;6.13;;;;;;;22.50;50.34;99693.94;10342596;28;20058;-61
2022/08/26 21:01:33;;;;;;;10.18;5.95;;;;;;;22.44;50.35;99697.31;10343521;28;20212;-61
2022/08/26 21:06:37;;;;;;;10.65;5.95;;;;;;;22.47;50.36;99704.13;10340692;28;20194;-61
2022/08/26 21:11:40;;;;;;;11.80;6.43;;;;;;;22.37;50.71;99714.97;10343936;28;20159;-61
2022/08/26 21:16:42;;;;;;;13.68;6.35;;;;;;;22.31;50.81;99720.19;10344784;28;20056;-61
2022/08/26 21:21:46;;;;;;;8.93;5.85;;;;;;;22.34;50.64;99723.31;10339540;28;20077;-61
2022/08/26 21:26:48;;;;;;;9.88;5.78;;;;;;;22.26;50.90;99712.69;10338823;28;20064;-61
2022/08/26 21:31:50;;;;;;;11.75;6.53;;;;;;;22.00;51.48;99729.88;10341274;28;20119;-61
2022/08/26 21:36:52;;;;;;;11.32;5.88;;;;;;;21.98;51.63;99731.88;10340532;28;20049;-61
2022/08/26 21:41:54;;;;;;;11.57;5.88;;;;;;;22.04;51.45;99712.59;10342176;28;20061;-61
2022/08/26 21:46:56;;;;;;;9.95;5.72;;;;;;;22.01;51.45;99727.03;10342916;28;20050;-61
2022/08/26 21:51:59;;;;;;;10.38;5.63;;;;;;;21.83;51.90;99731.72;10341328;28;20632;-61
2022/08/26 21:57:01;;;;;;;10.68;5.53;;;;;;;21.65;52.22;99737.22;10342901;28;20068;-61
2022/08/26 22:02:06;;;;;;;10.38;5.45;;;;;;;21.75;52.12;99732.56;10344896;28;20046;-61
2022/08/26 22:07:08;;;;;;;12.13;5.30;;;;;;;21.79;51.83;99739.22;10347897;28;20060;-61
2022/08/26 22:12:10;;;;;;;11.02;5.28;;;;;;;21.74;52.08;99741.53;10345515;28;20196;-60
2022/08/26 22:17:12;;;;;;;9.07;5.07;;;;;;;21.75;51.88;99737.88;10348416;28;20049;-60
2022/08/26 22:22:14;;;;;;;11.05;4.88;;;;;;;21.72;51.89;99746.19;10348471;28;20052;-60
2022/08/26 22:27:16;;;;;;;10.88;5.40;;;;;;;21.69;52.10;99748.38;10347052;28;20062;-61
2022/08/26 22:32:17;;;;;;;11.82;5.97;;;;;;;21.63;52.45;99749.03;10347778;28;20048;-61
2022/08/26 22:37:19;;;;;;;10.18;5.60;;;;;;;21.67;52.35;99742.38;10348108;28;20056;-60
2022/08/26 22:42:21;;;;;;;13.00;5.35;;;;;;;21.75;52.20;99748.53;10347085;28;20483;-60
2022/08/26 22:47:22;;;;;;;10.00;5.03;;;;;;;21.79;52.20;99749.03;10347828;28;20068;-60
2022/08/26 22:52:24;;;;;;;9.38;5.50;;;;;;;21.79;52.29;99746.38;10345353;28;20060;-60
2022/08/26 22:57:26;;;;;;;11.13;5.43;;;;;;;21.83;52.42;99745.03;10347707;28;20058;-60
2022/08/26 23:02:28;;;;;;;11.60;5.72;;;;;;;21.72;52.37;99742.72;10345948;28;20422;-60
2022/08/26 23:07:29;;;;;;;8.25;5.10;;;;;;;21.74;52.62;99743.38;10344533;28;20049;-60
2022/08/26 23:12:32;;;;;;;15.48;6.07;;;;;;;21.75;52.54;99737.88;10345249;28;20049;-60
2022/08/26 23:17:34;;;;;;;10.88;5.20;;;;;;;21.65;52.53;99745.22;10345609;28;20148;-60
2022/08/26 23:22:36;;;;;;;11.48;5.40;;;;;;;21.74;52.38;99746.88;10345478;28;20602;-60
2022/08/26 23:27:40;;;;;;;10.63;5.20;;;;;;;21.84;52.11;99746.72;10346007;28;20903;-60